createdAt,value
2018-11-28T00:00:38.381Z,-0.30
2018-11-28T00:03:12.591Z,-0.40
2018-11-28T00:05:46.808Z,-0.40
2018-11-28T00:08:21.208Z,-0.40
2018-11-28T00:10:55.488Z,-0.40
2018-11-28T00:13:29.868Z,-0.40
2018-11-28T00:16:04.208Z,-0.40
2018-11-28T00:18:38.579Z,-0.30
2018-11-28T00:21:12.838Z,-0.30
2018-11-28T00:23:47.164Z,-0.30
2018-11-28T00:26:21.465Z,-0.30
2018-11-28T00:28:55.869Z,-0.30
2018-11-28T00:31:30.296Z,-0.30
2018-11-28T00:34:04.920Z,-0.30
2018-11-28T00:36:39.210Z,-0.30
2018-11-28T00:39:13.488Z,-0.30
2018-11-28T00:41:47.705Z,-0.40
2018-11-28T00:44:22.109Z,-0.50
2018-11-28T00:46:56.413Z,-0.40
2018-11-28T00:49:30.816Z,-0.40
2018-11-28T00:52:05.228Z,-0.40
2018-11-28T00:54:39.380Z,-0.40
2018-11-28T00:57:13.683Z,-0.40
2018-11-28T00:59:47.864Z,-0.40
2018-11-28T01:02:22.009Z,-0.40
2018-11-28T01:04:56.340Z,-0.40
2018-11-28T01:07:30.664Z,-0.40
2018-11-28T01:10:08.338Z,-0.50
2018-11-28T01:12:42.733Z,-0.50
2018-11-28T01:15:17.719Z,-0.40
2018-11-28T01:17:52.221Z,-0.50
2018-11-28T01:20:26.465Z,-0.50
2018-11-28T01:23:00.732Z,-0.50
2018-11-28T01:25:34.984Z,-0.50
2018-11-28T01:28:09.441Z,-0.50
2018-11-28T01:30:43.637Z,-0.50
2018-11-28T01:33:18.012Z,-0.60
2018-11-28T01:35:52.288Z,-0.50
2018-11-28T01:38:26.624Z,-0.50
2018-11-28T01:41:00.935Z,-0.50
2018-11-28T01:43:35.260Z,-0.50
2018-11-28T01:46:09.579Z,-0.50
2018-11-28T01:48:43.840Z,-0.50
2018-11-28T01:51:18.113Z,-0.50
2018-11-28T01:53:52.467Z,-0.50
2018-11-28T01:56:26.740Z,-0.50
2018-11-28T01:59:00.950Z,-0.40
2018-11-28T02:01:35.232Z,-0.50
2018-11-28T02:04:09.668Z,-0.40
2018-11-28T02:06:43.988Z,-0.40
2018-11-28T02:09:18.365Z,-0.40
2018-11-28T02:11:52.541Z,-0.40
2018-11-28T02:14:26.696Z,-0.40
2018-11-28T02:17:00.986Z,-0.40
2018-11-28T02:19:35.468Z,-0.40
2018-11-28T02:22:09.779Z,-0.40
2018-11-28T02:24:43.988Z,-0.50
2018-11-28T02:27:18.244Z,-0.50
2018-11-28T02:29:52.703Z,-0.50
2018-11-28T02:32:27.008Z,-0.50
2018-11-28T02:35:01.283Z,-0.60
2018-11-28T02:37:35.571Z,-0.60
2018-11-28T02:40:13.884Z,-0.60
2018-11-28T02:42:48.964Z,-0.60
2018-11-28T02:45:23.311Z,-0.60
2018-11-28T02:47:57.611Z,-0.60
2018-11-28T02:50:31.971Z,-0.60
2018-11-28T02:53:06.330Z,-0.60
2018-11-28T02:55:40.800Z,-0.60
2018-11-28T02:58:15.056Z,-0.60
2018-11-28T03:00:49.415Z,-0.60
2018-11-28T03:03:23.741Z,-0.70
2018-11-28T03:05:57.968Z,-0.70
2018-11-28T03:08:32.124Z,-0.80
2018-11-28T03:11:06.481Z,-0.80
2018-11-28T03:13:40.881Z,-0.80
2018-11-28T03:16:18.479Z,-0.80
2018-11-28T03:18:52.640Z,-0.90
2018-11-28T03:21:27.048Z,-0.90
2018-11-28T03:24:01.429Z,-0.90
2018-11-28T03:26:35.721Z,-0.90
2018-11-28T03:29:10.025Z,-0.90
2018-11-28T03:31:44.429Z,-0.90
2018-11-28T03:34:18.664Z,-0.90
2018-11-28T03:36:53.065Z,-0.90
2018-11-28T03:39:27.383Z,-0.90
2018-11-28T03:42:01.657Z,-0.90
2018-11-28T03:44:36.024Z,-0.90
2018-11-28T03:47:10.389Z,-0.80
2018-11-28T03:49:44.788Z,-0.80
2018-11-28T03:52:19.092Z,-0.80
2018-11-28T03:54:53.349Z,-0.70
2018-11-28T03:57:27.678Z,-0.70
2018-11-28T04:00:01.979Z,-0.70
2018-11-28T04:02:36.232Z,-0.60
2018-11-28T04:05:11.180Z,-0.60
2018-11-28T04:07:45.411Z,-0.60
2018-11-28T04:10:19.648Z,-0.60
2018-11-28T04:12:53.928Z,-0.60
2018-11-28T04:15:28.108Z,-0.60
2018-11-28T04:18:02.326Z,-0.60
2018-11-28T04:20:36.621Z,-0.60
2018-11-28T04:23:10.889Z,-0.60
2018-11-28T04:25:45.246Z,-0.60
2018-11-28T04:28:19.596Z,-0.60
2018-11-28T04:30:54.020Z,-0.70
2018-11-28T04:33:28.432Z,-0.60
2018-11-28T04:36:02.737Z,-0.60
2018-11-28T04:38:37.192Z,-0.60
2018-11-28T04:41:11.585Z,-0.70
2018-11-28T04:43:45.836Z,-0.70
2018-11-28T04:46:19.995Z,-0.70
2018-11-28T04:48:54.271Z,-0.80
2018-11-28T04:51:28.476Z,-0.80
2018-11-28T04:54:02.753Z,-0.80
2018-11-28T04:56:37.180Z,-0.80
2018-11-28T04:59:11.460Z,-0.80
2018-11-28T05:01:45.864Z,-0.80
2018-11-28T05:04:20.148Z,-0.90
2018-11-28T05:07:57.387Z,-0.90
2018-11-28T05:10:31.619Z,-0.90
2018-11-28T05:13:05.941Z,-0.90
2018-11-28T05:15:40.292Z,-0.90
2018-11-28T05:18:14.489Z,-0.90
2018-11-28T05:20:48.749Z,-0.90
2018-11-28T05:23:23.033Z,-0.90
2018-11-28T05:25:58.173Z,-0.90
2018-11-28T05:28:32.464Z,-0.80
2018-11-28T05:31:06.892Z,-0.80
2018-11-28T05:33:41.036Z,-0.80
2018-11-28T05:36:15.424Z,-0.80
2018-11-28T05:38:49.693Z,-0.70
2018-11-28T05:41:24.012Z,-0.70
2018-11-28T05:43:58.332Z,-0.70
2018-11-28T05:46:32.557Z,-0.70
2018-11-28T05:49:06.863Z,-0.70
2018-11-28T05:51:41.017Z,-0.70
2018-11-28T05:54:15.299Z,-0.70
2018-11-28T05:56:49.676Z,-0.70
2018-11-28T05:59:27.290Z,-0.70
2018-11-28T06:01:58.377Z,-0.70
2018-11-28T06:04:32.676Z,-0.70
2018-11-28T06:07:06.871Z,-0.70
2018-11-28T06:09:41.100Z,-0.60
2018-11-28T06:12:15.395Z,-0.70
2018-11-28T06:14:49.701Z,-0.60
2018-11-28T06:17:23.988Z,-0.70
2018-11-28T06:19:58.329Z,-0.70
2018-11-28T06:22:32.560Z,-0.60
2018-11-28T06:25:15.633Z,-0.60
2018-11-28T06:27:42.937Z,-0.60
2018-11-28T06:30:19.120Z,-0.60
2018-11-28T06:32:53.276Z,-0.60
2018-11-28T06:35:27.580Z,-0.60
2018-11-28T06:38:01.852Z,-0.50
2018-11-28T06:40:36.090Z,-0.60
2018-11-28T06:43:10.440Z,-0.50
2018-11-28T06:45:44.564Z,-0.50
2018-11-28T06:48:18.749Z,-0.50
2018-11-28T06:50:53.049Z,-0.50
2018-11-28T06:53:27.327Z,-0.50
2018-11-28T06:56:01.580Z,-0.50
2018-11-28T06:58:35.933Z,-0.40
2018-11-28T07:01:10.336Z,-0.50
2018-11-28T07:03:44.511Z,-0.50
2018-11-28T07:06:18.777Z,-0.40
2018-11-28T07:08:53.412Z,-0.40
2018-11-28T07:11:27.625Z,-0.40
2018-11-28T07:14:02.028Z,-0.40
2018-11-28T07:16:36.254Z,-0.40
2018-11-28T07:19:11.375Z,-0.40
2018-11-28T07:21:45.744Z,-0.40
2018-11-28T07:24:20.044Z,-0.40
2018-11-28T07:26:54.267Z,-0.40
2018-11-28T07:29:28.525Z,-0.40
2018-11-28T07:32:02.839Z,-0.40
2018-11-28T07:34:37.051Z,-0.40
2018-11-28T07:37:11.350Z,-0.40
2018-11-28T07:39:45.538Z,-0.40
2018-11-28T07:42:19.782Z,-0.40
2018-11-28T07:44:53.956Z,-0.40
2018-11-28T07:47:28.140Z,-0.40
2018-11-28T07:50:02.466Z,-0.40
2018-11-28T07:52:36.904Z,-0.40
2018-11-28T07:55:11.531Z,-0.40
2018-11-28T07:57:45.828Z,-0.30
2018-11-28T08:00:19.964Z,-0.30
2018-11-28T08:02:54.268Z,-0.30
2018-11-28T08:05:28.461Z,-0.30
2018-11-28T08:08:02.790Z,-0.30
2018-11-28T08:10:37.220Z,-0.30
2018-11-28T08:13:11.590Z,-0.20
2018-11-28T08:15:46.000Z,-0.20
2018-11-28T08:18:20.224Z,-0.20
2018-11-28T08:20:54.636Z,-0.10
2018-11-28T08:23:29.117Z,-0.10
2018-11-28T08:26:03.436Z,-0.10
2018-11-28T08:28:37.742Z,0.00
2018-11-28T08:31:11.968Z,0.00
2018-11-28T08:33:46.478Z,0.10
2018-11-28T08:36:20.720Z,0.10
2018-11-28T08:38:54.928Z,0.20
2018-11-28T08:41:29.184Z,0.20
2018-11-28T08:44:03.443Z,0.30
2018-11-28T08:46:37.820Z,0.40
2018-11-28T08:49:12.071Z,0.40
2018-11-28T08:51:46.299Z,0.50
2018-11-28T08:54:20.733Z,0.60
2018-11-28T08:56:54.952Z,0.60
2018-11-28T08:59:29.332Z,0.60
2018-11-28T09:02:03.589Z,0.70
2018-11-28T09:04:37.864Z,0.70
2018-11-28T09:07:12.097Z,0.70
2018-11-28T09:09:46.451Z,0.80
2018-11-28T09:12:20.725Z,0.80
2018-11-28T09:14:55.008Z,0.90
2018-11-28T09:17:29.340Z,0.90
2018-11-28T09:20:04.735Z,0.90
2018-11-28T09:22:39.120Z,1.00
2018-11-28T09:25:15.316Z,1.00
2018-11-28T09:27:52.492Z,1.10
2018-11-28T09:30:26.828Z,1.20
2018-11-28T09:33:01.132Z,1.30
2018-11-28T09:35:35.533Z,1.30
2018-11-28T09:38:09.804Z,1.40
2018-11-28T09:40:44.112Z,1.40
2018-11-28T09:43:18.273Z,1.60
2018-11-28T09:45:52.719Z,1.70
2018-11-28T09:48:27.060Z,1.70
2018-11-28T09:51:01.213Z,1.80
2018-11-28T09:53:35.475Z,1.80
2018-11-28T09:56:09.752Z,1.80
2018-11-28T09:58:44.156Z,1.90
2018-11-28T10:01:18.481Z,2.00
2018-11-28T10:03:52.808Z,2.10
2018-11-28T10:07:33.813Z,2.10
2018-11-28T10:10:11.015Z,2.20
2018-11-28T10:12:46.664Z,2.30
2018-11-28T10:15:25.382Z,2.30
2018-11-28T10:17:59.736Z,2.50
2018-11-28T10:20:33.996Z,2.50
2018-11-28T10:23:08.330Z,2.50
2018-11-28T10:25:42.655Z,2.60
2018-11-28T10:28:16.892Z,2.60
2018-11-28T10:30:51.146Z,2.70
2018-11-28T10:33:25.453Z,2.80
2018-11-28T10:35:59.800Z,2.80
2018-11-28T10:38:34.124Z,2.90
2018-11-28T10:41:08.554Z,3.10
2018-11-28T10:43:42.752Z,3.20
2018-11-28T10:46:17.064Z,3.30
2018-11-28T10:48:51.288Z,3.30
2018-11-28T10:51:25.632Z,3.40
2018-11-28T10:53:59.901Z,3.40
2018-11-28T10:56:34.181Z,3.50
2018-11-28T10:59:08.641Z,3.50
2018-11-28T11:01:48.368Z,3.60
2018-11-28T11:04:25.696Z,3.60
2018-11-28T11:07:05.368Z,3.70
2018-11-28T11:09:44.863Z,3.70
2018-11-28T11:13:26.664Z,3.80
2018-11-28T11:16:00.896Z,3.70
2018-11-28T11:18:35.221Z,3.70
2018-11-28T11:21:09.960Z,3.70
2018-11-28T11:23:43.744Z,3.70
2018-11-28T11:26:17.928Z,3.70
2018-11-28T11:28:52.160Z,3.80
2018-11-28T11:31:26.395Z,3.80
2018-11-28T11:34:00.584Z,3.90
2018-11-28T11:36:34.867Z,3.90
2018-11-28T11:39:09.141Z,4.00
2018-11-28T11:41:43.469Z,4.00
2018-11-28T11:44:17.673Z,4.10
2018-11-28T11:46:52.059Z,4.10
2018-11-28T11:49:26.256Z,4.10
2018-11-28T11:52:00.537Z,4.20
2018-11-28T11:54:34.873Z,4.20
2018-11-28T11:57:09.245Z,4.20
2018-11-28T11:59:43.490Z,4.20
2018-11-28T12:02:17.809Z,4.30
2018-11-28T12:04:52.005Z,4.30
2018-11-28T12:07:26.503Z,4.30
2018-11-28T12:10:00.729Z,4.40
2018-11-28T12:12:35.005Z,4.40
2018-11-28T12:15:13.125Z,4.40
2018-11-28T12:17:48.429Z,4.40
2018-11-28T12:20:34.638Z,4.40
2018-11-28T12:23:08.963Z,4.50
2018-11-28T12:25:43.220Z,4.50
2018-11-28T12:28:17.496Z,4.60
2018-11-28T12:30:51.878Z,4.60
2018-11-28T12:33:26.160Z,4.60
2018-11-28T12:36:00.481Z,4.70
2018-11-28T12:38:34.684Z,4.80
2018-11-28T12:41:08.981Z,4.80
2018-11-28T12:43:43.268Z,4.80
2018-11-28T12:46:17.533Z,4.80
2018-11-28T12:48:51.824Z,4.80
2018-11-28T12:51:26.049Z,4.80
2018-11-28T12:54:00.385Z,4.80
2018-11-28T12:56:34.540Z,4.80
2018-11-28T12:59:08.746Z,4.80
2018-11-28T13:01:43.023Z,4.80
2018-11-28T13:04:17.277Z,4.80
2018-11-28T13:06:51.617Z,4.80
2018-11-28T13:09:25.790Z,4.80
2018-11-28T13:12:00.241Z,4.80
2018-11-28T13:14:34.482Z,4.80
2018-11-28T13:17:08.842Z,4.80
2018-11-28T13:19:43.270Z,4.80
2018-11-28T13:22:17.473Z,4.80
2018-11-28T13:24:52.094Z,4.90
2018-11-28T13:27:26.373Z,4.90
2018-11-28T13:30:00.858Z,4.90
2018-11-28T13:32:35.140Z,4.90
2018-11-28T13:35:10.053Z,4.90
2018-11-28T13:37:45.384Z,5.00
2018-11-28T13:40:20.230Z,5.00
2018-11-28T13:42:54.552Z,5.00
2018-11-28T13:45:31.320Z,5.00
2018-11-28T13:48:05.800Z,5.00
2018-11-28T13:50:39.989Z,5.00
2018-11-28T13:53:16.745Z,5.00
2018-11-28T13:56:57.350Z,5.00
2018-11-28T13:58:26.797Z,5.00
2018-11-28T14:01:01.248Z,5.00
2018-11-28T14:03:35.540Z,5.00
2018-11-28T14:06:09.857Z,5.00
2018-11-28T14:08:44.053Z,4.90
2018-11-28T14:11:18.363Z,4.90
2018-11-28T14:13:52.669Z,4.90
2018-11-28T14:16:26.968Z,4.90
2018-11-28T14:19:01.291Z,4.80
2018-11-28T14:21:35.689Z,4.80
2018-11-28T14:24:09.860Z,4.80
2018-11-28T14:26:44.176Z,4.80
2018-11-28T14:29:18.524Z,4.80
2018-11-28T14:31:52.884Z,4.80
2018-11-28T14:34:27.127Z,4.80
2018-11-28T14:37:01.440Z,4.80
2018-11-28T14:39:35.769Z,4.70
2018-11-28T14:42:10.245Z,4.70
2018-11-28T14:44:44.534Z,4.70
2018-11-28T14:47:18.876Z,4.70
2018-11-28T14:49:53.059Z,4.70
2018-11-28T14:52:27.359Z,4.60
2018-11-28T14:55:01.711Z,4.60
2018-11-28T14:57:35.873Z,4.60
2018-11-28T15:00:15.561Z,4.60
2018-11-28T15:02:51.008Z,4.60
2018-11-28T15:05:32.280Z,4.60
2018-11-28T15:08:10.808Z,4.60
2018-11-28T15:10:51.793Z,4.50
2018-11-28T15:13:26.166Z,4.50
2018-11-28T15:16:00.351Z,4.50
2018-11-28T15:18:34.656Z,4.50
2018-11-28T15:21:10.712Z,4.50
2018-11-28T15:23:45.028Z,4.50
2018-11-28T15:26:19.381Z,4.50
2018-11-28T15:28:53.717Z,4.40
2018-11-28T15:31:27.964Z,4.40
2018-11-28T15:34:02.249Z,4.40
2018-11-28T15:36:36.447Z,4.40
2018-11-28T15:39:10.814Z,4.40
2018-11-28T15:41:45.068Z,4.40
2018-11-28T15:44:19.959Z,4.40
2018-11-28T15:47:00.778Z,4.40
2018-11-28T15:49:35.068Z,4.40
2018-11-28T15:52:09.320Z,4.40
2018-11-28T15:54:43.808Z,4.40
2018-11-28T15:57:18.008Z,4.30
2018-11-28T15:59:52.352Z,4.40
2018-11-28T16:02:26.659Z,4.40
2018-11-28T16:05:00.964Z,4.50
2018-11-28T16:07:35.272Z,4.40
2018-11-28T16:10:16.536Z,4.40
2018-11-28T16:12:50.933Z,4.40
2018-11-28T16:15:30.115Z,4.40
2018-11-28T16:18:04.364Z,4.50
2018-11-28T16:20:38.620Z,4.40
2018-11-28T16:23:12.948Z,4.50
2018-11-28T16:25:47.230Z,4.50
2018-11-28T16:28:21.386Z,4.40
2018-11-28T16:30:55.655Z,4.50
2018-11-28T16:33:30.017Z,4.40
2018-11-28T16:36:04.332Z,4.40
2018-11-28T16:38:38.673Z,4.40
2018-11-28T16:41:13.013Z,4.40
2018-11-28T16:43:47.328Z,4.40
2018-11-28T16:46:21.564Z,4.40
2018-11-28T16:48:55.884Z,4.40
2018-11-28T16:51:30.089Z,4.40
2018-11-28T16:54:04.312Z,4.40
2018-11-28T16:56:38.600Z,4.50
2018-11-28T16:59:13.024Z,4.40
2018-11-28T17:01:47.313Z,4.40
2018-11-28T17:04:21.660Z,4.50
2018-11-28T17:06:55.788Z,4.50
2018-11-28T17:09:30.068Z,4.50
2018-11-28T17:12:04.484Z,4.50
2018-11-28T17:14:38.644Z,4.50
2018-11-28T17:17:12.941Z,4.50
2018-11-28T17:19:47.176Z,4.50
2018-11-28T17:22:21.384Z,4.50
2018-11-28T17:24:55.712Z,4.60
2018-11-28T17:27:29.931Z,4.60
2018-11-28T17:30:04.824Z,4.60
2018-11-28T17:32:38.995Z,4.60
2018-11-28T17:35:13.961Z,4.60
2018-11-28T17:37:48.204Z,4.60
2018-11-28T17:40:23.832Z,4.60
2018-11-28T17:42:59.084Z,4.60
2018-11-28T17:45:33.320Z,4.60
2018-11-28T17:48:07.668Z,4.60
2018-11-28T17:50:41.915Z,4.60
2018-11-28T17:53:16.099Z,4.60
2018-11-28T17:55:52.846Z,4.60
2018-11-28T17:58:27.093Z,4.60
2018-11-28T18:01:01.616Z,4.60
2018-11-28T18:03:35.953Z,4.60
2018-11-28T18:06:10.301Z,4.70
2018-11-28T18:08:44.449Z,4.60
2018-11-28T18:11:18.592Z,4.70
2018-11-28T18:13:52.782Z,4.70
2018-11-28T18:16:29.473Z,4.70
2018-11-28T18:19:01.467Z,4.70
2018-11-28T18:21:35.921Z,4.70
2018-11-28T18:24:10.211Z,4.70
2018-11-28T18:26:44.529Z,4.70
2018-11-28T18:29:18.828Z,4.70
2018-11-28T18:31:53.649Z,4.70
2018-11-28T18:34:28.232Z,4.70
2018-11-28T18:37:02.881Z,4.70
2018-11-28T18:39:38.429Z,4.80
2018-11-28T18:42:15.010Z,4.80
2018-11-28T18:44:49.596Z,4.70
2018-11-28T18:47:23.921Z,4.80
2018-11-28T18:49:58.320Z,4.80
2018-11-28T18:52:32.871Z,4.80
2018-11-28T18:55:16.395Z,4.80
2018-11-28T18:57:45.451Z,4.90
2018-11-28T19:00:20.780Z,4.90
2018-11-28T19:02:55.776Z,4.90
2018-11-28T19:05:30.185Z,4.90
2018-11-28T19:08:05.061Z,4.90
2018-11-28T19:10:39.472Z,4.90
2018-11-28T19:13:14.264Z,4.90
2018-11-28T19:15:48.643Z,5.00
2018-11-28T19:18:23.023Z,5.00
2018-11-28T19:20:57.400Z,5.00
2018-11-28T19:23:31.744Z,5.00
2018-11-28T19:26:06.376Z,5.10
2018-11-28T19:28:40.765Z,5.10
2018-11-28T19:31:15.152Z,5.10
2018-11-28T19:33:49.564Z,5.20
2018-11-28T19:36:23.905Z,5.20
2018-11-28T19:38:58.240Z,5.20
2018-11-28T19:41:32.560Z,5.20
2018-11-28T19:44:06.965Z,5.30
2018-11-28T19:46:41.213Z,5.30
2018-11-28T19:49:15.578Z,5.30
2018-11-28T19:51:49.840Z,5.30
2018-11-28T19:54:24.007Z,5.30
2018-11-28T19:56:58.356Z,5.30
2018-11-28T19:59:32.788Z,5.40
2018-11-28T20:02:07.186Z,5.30
2018-11-28T20:04:41.501Z,5.40
2018-11-28T20:07:15.801Z,5.40
2018-11-28T20:09:54.236Z,5.40
2018-11-28T20:12:28.420Z,5.40
2018-11-28T20:15:02.941Z,5.40
2018-11-28T20:17:37.384Z,5.40
2018-11-28T20:20:12.753Z,5.40
2018-11-28T20:22:47.005Z,5.40
2018-11-28T20:25:22.676Z,5.40
2018-11-28T20:27:59.905Z,5.40
2018-11-28T20:30:36.164Z,5.40
2018-11-28T20:33:10.782Z,5.40
2018-11-28T20:35:46.317Z,5.40
2018-11-28T20:38:24.132Z,5.40
2018-11-28T20:40:58.276Z,5.40
2018-11-28T20:43:32.596Z,5.30
2018-11-28T20:46:07.117Z,5.30
2018-11-28T20:48:41.344Z,5.30
2018-11-28T20:51:15.616Z,5.30
2018-11-28T20:53:49.972Z,5.30
2018-11-28T20:56:24.324Z,5.30
2018-11-28T20:58:58.571Z,5.30
2018-11-28T21:01:32.780Z,5.30
2018-11-28T21:04:07.157Z,5.30
2018-11-28T21:06:41.476Z,5.30
2018-11-28T21:09:15.880Z,5.30
2018-11-28T21:11:50.116Z,5.30
2018-11-28T21:14:24.273Z,5.30
2018-11-28T21:16:58.544Z,5.30
2018-11-28T21:19:32.860Z,5.30
2018-11-28T21:22:07.176Z,5.30
2018-11-28T21:24:41.383Z,5.30
2018-11-28T21:27:15.646Z,5.30
2018-11-28T21:29:50.076Z,5.30
2018-11-28T21:32:24.265Z,5.30
2018-11-28T21:34:58.708Z,5.30
2018-11-28T21:37:33.076Z,5.30
2018-11-28T21:40:07.769Z,5.30
2018-11-28T21:42:42.112Z,5.30
2018-11-28T21:45:17.385Z,5.30
2018-11-28T21:47:51.645Z,5.30
2018-11-28T21:50:25.848Z,5.30
2018-11-28T21:53:00.112Z,5.30
2018-11-28T21:55:34.432Z,5.30
2018-11-28T21:58:08.712Z,5.40
2018-11-28T22:00:43.091Z,5.40
2018-11-28T22:03:17.368Z,5.40
2018-11-28T22:05:51.763Z,5.40
2018-11-28T22:08:26.004Z,5.50
2018-11-28T22:11:00.404Z,5.40
2018-11-28T22:13:34.675Z,5.50
2018-11-28T22:16:08.849Z,5.50
2018-11-28T22:18:43.161Z,5.50
2018-11-28T22:21:17.392Z,5.50
2018-11-28T22:23:51.668Z,5.50
2018-11-28T22:26:25.994Z,5.60
2018-11-28T22:29:00.291Z,5.60
2018-11-28T22:31:34.614Z,5.60
2018-11-28T22:34:08.903Z,5.60
2018-11-28T22:36:43.168Z,5.60
2018-11-28T22:39:17.356Z,5.60
2018-11-28T22:41:51.815Z,5.60
2018-11-28T22:44:26.183Z,5.60
2018-11-28T22:47:00.445Z,5.60
2018-11-28T22:49:34.752Z,5.60
2018-11-28T22:52:09.051Z,5.70
2018-11-28T22:54:43.352Z,5.60
2018-11-28T22:57:17.617Z,5.70
2018-11-28T22:59:51.784Z,5.70
2018-11-28T23:02:38.265Z,5.70
2018-11-28T23:05:12.564Z,5.70
2018-11-28T23:07:46.848Z,5.70
2018-11-28T23:10:21.181Z,5.70
2018-11-28T23:12:55.432Z,5.70
2018-11-28T23:15:29.582Z,5.70
2018-11-28T23:18:03.829Z,5.70
2018-11-28T23:20:38.155Z,5.70
2018-11-28T23:23:12.545Z,5.70
2018-11-28T23:25:46.848Z,5.70
2018-11-28T23:28:21.168Z,5.80
2018-11-28T23:30:55.480Z,5.70
2018-11-28T23:33:29.639Z,5.70
2018-11-28T23:36:04.000Z,5.70
2018-11-28T23:38:38.266Z,5.70
2018-11-28T23:41:12.720Z,5.70
2018-11-28T23:43:46.971Z,5.70
2018-11-28T23:46:21.249Z,5.70
2018-11-28T23:48:55.480Z,5.70
2018-11-28T23:51:29.664Z,5.80
2018-11-28T23:54:03.890Z,5.70
2018-11-28T23:56:38.240Z,5.80
2018-11-28T23:59:12.492Z,5.80
